Tobias Bolanos International Airport
MRPV : rendu visible

Aérodrome :











RETROUVEZ-NOUS SUR...

 
LOGIN :

S'inscrire | Disclaimer

   EN    FR    IT 

 









Légende :    VFR   VFR Marginal   IFR   IFR Intensif   IFR Très Intensif
Visi : 
Plafond : 
>= 8 km
>= 3000ft
5 à 8 km
1000 à 3000 ft
1500m à 5 km
500 à 1000 ft
800 à 1500m
200 à 500 ft
< 800m
< 200 ft
Symboles :   Orages  Brouillard  Fortes neiges  Fortes précipitations  Vent > 20 kt






- Altitude de l'aérodrome : 3287 ft
- Code IATA : SYQ


MRPV - Tobias Bolanos International

DERNIER METAR :
  • 132100Z 31004KT 9999 FEW015 OVC120 22/19 A3001 NOSIG

METARs EXPIRÉS :
  • 132000Z 08003KT 9999 FEW015 OVC120 24/15 A3002 TEMPO 32005KT
  • 131900Z 11007KT CAVOK 23/15 A3004 NOSIG

TAF MRPV
Valide du 13 à 18h jusqu'au 14 à 18h UTC


131700Z 1318/1418 10008KT 9999 FEW045 OVC120 TX26/1418Z TN17/1410Z
TEMPO 1318/1324 RA
FIR MHTG / Amérique du Nord



MET'MAP, la Météo Aéronautique d'un coup d'oeil ! - Copyright ORBIFLY Décembre 2007 - Disclaimer

ORBIFLY MET'MAP TEAM :

Programmation & Développement : Alexandra Zaïnal
Sur une idée originale de : Baudouin d'Aumeries
Assistance à la programmation : Marc-Olivier Méhu
Soutien technique & logistique : Manuel Goepfert

Contact : metmap@orbifly.com




SOURCES & CREDITS :

   NOAA       Earth
Advisory